Time;durP1;ratioP1;P1;durP2;ratioP2;P2;SDS_P1;SDS_P2;PMS_P1;PMS_P2;Temp;Humidity;BMP_temperature;BMP_pressure;BME280_temperature;BME280_humidity;BME280_pressure;Samples;Min_cycle;Max_cycle;Signal;HPM_P1;HPM_P2
2024/01/18 00:01:26;;;;;;;23.70;18.55;;;;;;;1.43;66.85;99271.16;5004575;28;20033;-61
2024/01/18 00:03:51;;;;;;;26.58;18.63;;;;;;;1.43;66.83;99271.16;5005204;28;20029;-61
2024/01/18 00:06:17;;;;;;;27.05;18.67;;;;;;;1.43;66.94;99268.41;5007318;28;20453;-61
2024/01/18 00:08:42;;;;;;;26.27;19.00;;;;;;;1.43;67.07;99271.16;5008893;28;20026;-61
2024/01/18 00:11:07;;;;;;;25.80;19.23;;;;;;;1.44;67.81;99273.63;4997299;28;20044;-61
2024/01/18 00:13:33;;;;;;;27.70;18.45;;;;;;;1.45;67.48;99279.94;5005774;28;20405;-61
2024/01/18 00:15:58;;;;;;;25.15;18.67;;;;;;;1.43;67.10;99287.56;5013949;28;20038;-61
2024/01/18 00:18:23;;;;;;;27.77;19.98;;;;;;;1.42;67.86;99285.88;5001972;28;20121;-61
2024/01/18 00:20:48;;;;;;;27.75;20.20;;;;;;;1.43;67.22;99293.84;4988516;28;20038;-61
2024/01/18 00:23:14;;;;;;;28.10;19.73;;;;;;;1.43;67.74;99301.22;4989662;28;20027;-61
2024/01/18 00:25:39;;;;;;;28.42;19.52;;;;;;;1.43;67.90;99310.25;5003821;28;20519;-61
2024/01/18 00:28:04;;;;;;;24.20;18.85;;;;;;;1.45;68.16;99310.00;4996986;28;20545;-61
2024/01/18 00:30:30;;;;;;;24.63;19.75;;;;;;;1.43;68.17;99303.97;4993181;28;20038;-61
2024/01/18 00:32:55;;;;;;;24.02;18.85;;;;;;;1.43;67.69;99295.75;5001759;28;20030;-61
2024/01/18 00:35:20;;;;;;;26.02;18.35;;;;;;;1.42;68.06;99299.56;5008127;28;20044;-61
2024/01/18 00:37:46;;;;;;;22.90;18.00;;;;;;;1.44;67.77;99297.41;5021626;28;20049;-61
2024/01/18 00:40:13;;;;;;;23.70;18.02;;;;;;;1.41;67.69;99306.91;5014098;28;20038;-62
2024/01/18 00:42:39;;;;;;;26.45;18.63;;;;;;;1.41;68.26;99306.06;5007881;28;20053;-61
2024/01/18 00:45:05;;;;;;;23.58;18.30;;;;;;;1.41;67.72;99308.81;4998151;28;20039;-61
2024/01/18 00:47:30;;;;;;;24.52;18.75;;;;;;;1.41;68.27;99306.06;5010720;28;20485;-61
2024/01/18 00:49:55;;;;;;;23.77;17.98;;;;;;;1.40;68.26;99302.50;5007715;28;20029;-61
2024/01/18 00:52:21;;;;;;;24.98;19.05;;;;;;;1.41;67.85;99311.53;5008529;28;20602;-61
2024/01/18 00:54:46;;;;;;;23.08;18.85;;;;;;;1.40;68.07;99320.81;5007696;28;20034;-61
2024/01/18 00:57:11;;;;;;;25.30;18.70;;;;;;;1.42;68.19;99326.91;5007262;28;20038;-61
2024/01/18 00:59:37;;;;;;;27.85;19.38;;;;;;;1.42;67.78;99325.00;5012094;28;20476;-61
2024/01/18 01:02:03;;;;;;;30.75;18.23;;;;;;;1.43;67.94;99328.56;5011751;28;20549;-61
2024/01/18 01:04:29;;;;;;;25.38;18.20;;;;;;;1.41;68.50;99330.69;5043523;28;20028;-61
2024/01/18 01:06:54;;;;;;;26.30;19.25;;;;;;;1.40;67.61;99324.38;5028261;28;20033;-61
2024/01/18 01:09:19;;;;;;;25.10;18.80;;;;;;;1.39;67.71;99327.34;5068734;28;20380;-61
2024/01/18 01:11:45;;;;;;;26.70;18.85;;;;;;;1.39;67.96;99327.34;5031223;28;20030;-61
2024/01/18 01:14:10;;;;;;;23.00;18.33;;;;;;;1.39;68.39;99335.56;5013887;28;20026;-61
2024/01/18 01:16:36;;;;;;;25.27;17.92;;;;;;;1.38;68.38;99337.47;5010130;28;20044;-61
2024/01/18 01:19:01;;;;;;;23.35;18.30;;;;;;;1.39;68.29;99336.38;5011539;28;20034;-61
2024/01/18 01:21:26;;;;;;;23.30;18.65;;;;;;;1.39;68.29;99335.56;5025086;28;20129;-61
2024/01/18 01:23:52;;;;;;;24.35;19.15;;;;;;;1.39;68.29;99338.28;5008865;28;20110;-61
2024/01/18 01:26:17;;;;;;;25.52;18.90;;;;;;;1.38;68.01;99344.84;5010307;28;20057;-61
2024/01/18 01:28:43;;;;;;;26.40;17.90;;;;;;;1.37;68.37;99343.13;5018954;28;20034;-61
2024/01/18 01:31:08;;;;;;;27.38;18.20;;;;;;;1.37;67.92;99343.97;5010438;28;20030;-61
2024/01/18 01:33:37;;;;;;;24.13;18.60;;;;;;;1.36;68.11;99353.25;5011228;28;20057;-61
2024/01/18 01:36:04;;;;;;;27.10;19.60;;;;;;;1.34;68.55;99355.38;5008062;28;20117;-61
2024/01/18 01:38:30;;;;;;;22.52;17.73;;;;;;;1.33;68.62;99358.34;5023879;28;20034;-61
2024/01/18 01:40:55;;;;;;;24.35;18.98;;;;;;;1.31;68.55;99357.75;5039683;28;20029;-61
2024/01/18 01:43:22;;;;;;;25.75;19.30;;;;;;;1.31;68.06;99371.41;4992547;28;20046;-61
2024/01/18 01:45:48;;;;;;;24.75;19.17;;;;;;;1.29;68.69;99362.59;4999376;28;20147;-61
2024/01/18 01:48:13;;;;;;;24.50;19.50;;;;;;;1.29;68.43;99379.00;5005565;28;20102;-61
2024/01/18 01:50:39;;;;;;;25.17;19.30;;;;;;;1.28;68.44;99371.88;5011348;28;20030;-61
2024/01/18 01:53:07;;;;;;;25.23;18.92;;;;;;;1.27;68.97;99373.75;5010203;28;20484;-61
2024/01/18 01:55:32;;;;;;;25.95;18.65;;;;;;;1.27;69.13;99376.50;5010546;28;20469;-61
2024/01/18 01:57:59;;;;;;;24.33;18.40;;;;;;;1.27;68.86;99373.75;5013455;28;20036;-61
2024/01/18 02:00:25;;;;;;;27.35;19.58;;;;;;;1.27;68.25;99372.94;5010286;28;20026;-61
2024/01/18 02:02:51;;;;;;;26.77;18.70;;;;;;;1.27;68.91;99381.13;5011082;28;20465;-61
2024/01/18 02:05:17;;;;;;;24.48;19.73;;;;;;;1.27;69.04;99381.97;5007370;28;20113;-61
2024/01/18 02:07:42;;;;;;;23.38;18.90;;;;;;;1.28;69.20;99377.31;5004226;28;20117;-61
2024/01/18 02:10:08;;;;;;;25.05;18.60;;;;;;;1.27;69.05;99381.13;5010491;28;20030;-61
2024/01/18 02:12:34;;;;;;;22.42;18.08;;;;;;;1.28;68.31;99380.06;5010105;28;20492;-61
2024/01/18 02:14:59;;;;;;;24.38;18.65;;;;;;;1.27;68.58;99376.50;5010476;28;20030;-61
2024/01/18 02:17:25;;;;;;;23.95;18.58;;;;;;;1.29;69.25;99370.78;5017621;28;20121;-61
2024/01/18 02:19:50;;;;;;;25.90;18.23;;;;;;;1.30;68.75;99380.66;5029683;28;20061;-61
2024/01/18 02:22:22;;;;;;;25.55;18.85;;;;;;;1.29;69.16;99377.09;5030142;28;20033;-61
2024/01/18 02:24:54;;;;;;;24.52;18.65;;;;;;;1.30;69.37;99370.56;5000802;28;20397;-61
2024/01/18 02:27:20;;;;;;;23.60;17.50;;;;;;;1.31;68.90;99361.31;5015077;28;20473;-61
2024/01/18 02:29:46;;;;;;;23.98;18.85;;;;;;;1.29;68.48;99363.41;5030510;28;20039;-61
2024/01/18 02:32:11;;;;;;;22.40;18.42;;;;;;;1.29;68.89;99370.78;5016976;28;20021;-61
2024/01/18 02:34:39;;;;;;;24.38;18.38;;;;;;;1.32;68.98;99373.06;5009968;28;20442;-61
2024/01/18 02:37:05;;;;;;;25.25;19.35;;;;;;;1.27;68.79;99379.22;5010365;28;20026;-61
2024/01/18 02:39:31;;;;;;;28.98;19.45;;;;;;;1.30;69.37;99383.38;5007858;28;20319;-61
2024/01/18 02:41:56;;;;;;;24.92;19.27;;;;;;;1.28;68.94;99377.31;5001001;28;20048;-61
2024/01/18 02:44:24;;;;;;;25.17;18.17;;;;;;;1.28;69.40;99382.78;5005243;28;20045;-61
2024/01/18 02:46:49;;;;;;;22.35;18.20;;;;;;;1.29;69.18;99384.47;5013421;28;20120;-61
2024/01/18 02:49:15;;;;;;;27.83;20.15;;;;;;;1.28;69.39;99385.53;5015440;28;20130;-61
2024/01/18 02:51:40;;;;;;;26.67;19.25;;;;;;;1.30;69.33;99388.84;5010113;28;20073;-61
2024/01/18 02:54:05;;;;;;;25.33;18.92;;;;;;;1.31;68.85;99387.81;5009787;28;20106;-61
2024/01/18 02:56:31;;;;;;;24.98;18.67;;;;;;;1.29;69.25;99396.22;5009540;28;20042;-61
2024/01/18 02:58:56;;;;;;;24.73;18.13;;;;;;;1.29;69.53;99392.66;5028878;28;20100;-61
2024/01/18 03:01:21;;;;;;;23.75;18.60;;;;;;;1.28;69.79;99391.00;5024578;28;20120;-61
2024/01/18 03:03:46;;;;;;;26.65;18.83;;;;;;;1.29;69.18;99406.31;5015038;28;20082;-61
2024/01/18 03:06:12;;;;;;;25.20;18.48;;;;;;;1.29;69.12;99404.41;5060107;28;20026;-61
2024/01/18 03:08:37;;;;;;;24.90;17.85;;;;;;;1.29;69.52;99396.22;4990502;28;20105;-61
2024/01/18 03:11:02;;;;;;;24.98;18.27;;;;;;;1.28;68.85;99393.72;5006212;28;20108;-61
2024/01/18 03:13:28;;;;;;;24.13;18.25;;;;;;;1.29;69.83;99403.59;5029512;28;20454;-61
2024/01/18 03:15:53;;;;;;;25.63;18.95;;;;;;;1.28;69.82;99404.66;5028499;28;20396;-61
2024/01/18 03:18:18;;;;;;;27.42;18.23;;;;;;;1.26;69.76;99399.44;5029418;28;20112;-61
2024/01/18 03:20:43;;;;;;;23.77;19.08;;;;;;;1.25;69.49;99402.38;5028115;28;20037;-61
2024/01/18 03:23:09;;;;;;;27.08;20.05;;;;;;;1.25;69.17;99413.31;5011264;28;20034;-61
2024/01/18 03:25:34;;;;;;;24.80;19.13;;;;;;;1.25;69.14;99399.66;4999386;28;20030;-61
2024/01/18 03:27:59;;;;;;;29.30;18.55;;;;;;;1.23;69.84;99402.63;5025152;28;20090;-61
2024/01/18 03:30:25;;;;;;;25.45;18.25;;;;;;;1.21;69.24;99399.25;5013479;28;20041;-61
2024/01/18 03:32:50;;;;;;;21.88;18.35;;;;;;;1.21;69.32;99416.50;5009005;28;20040;-61
2024/01/18 03:35:15;;;;;;;24.85;17.90;;;;;;;1.21;69.13;99404.72;5008309;28;20084;-61
2024/01/18 03:37:41;;;;;;;25.27;17.83;;;;;;;1.22;69.88;99414.63;5015084;28;20034;-61
2024/01/18 03:40:10;;;;;;;22.15;17.98;;;;;;;1.19;69.23;99402.22;5009200;28;20367;-61
2024/01/18 03:42:40;;;;;;;24.48;18.75;;;;;;;1.18;69.28;99408.78;5009009;28;20793;-61
2024/01/18 03:45:05;;;;;;;24.15;18.40;;;;;;;1.21;69.41;99411.03;5068734;28;20024;-61
2024/01/18 03:47:30;;;;;;;23.77;18.92;;;;;;;1.18;70.07;99421.59;5015466;28;20057;-61
2024/01/18 03:49:56;;;;;;;26.63;19.17;;;;;;;1.17;69.05;99425.38;5009765;28;20026;-60
2024/01/18 03:52:21;;;;;;;22.42;17.20;;;;;;;1.18;69.39;99427.06;5028640;28;20021;-61
2024/01/18 03:54:48;;;;;;;25.45;18.02;;;;;;;1.18;69.35;99429.81;5028989;28;20049;-61
2024/01/18 03:57:13;;;;;;;23.63;18.42;;;;;;;1.18;69.63;99436.09;5011137;28;20126;-61
2024/01/18 03:59:38;;;;;;;21.17;16.67;;;;;;;1.17;69.65;99434.41;5008256;28;20465;-61
2024/01/18 04:02:04;;;;;;;23.65;17.50;;;;;;;1.18;69.36;99432.53;5008788;28;20057;-61
2024/01/18 04:04:29;;;;;;;24.02;18.00;;;;;;;1.16;70.23;99443.69;5033687;28;20022;-61
2024/01/18 04:06:55;;;;;;;22.33;17.10;;;;;;;1.16;69.87;99445.56;5027768;28;20106;-61
2024/01/18 04:09:20;;;;;;;21.80;16.50;;;;;;;1.16;69.32;99440.13;5039439;28;20106;-61
2024/01/18 04:11:46;;;;;;;22.42;18.33;;;;;;;1.14;69.69;99439.50;5012584;28;20026;-61
2024/01/18 04:14:11;;;;;;;24.45;18.48;;;;;;;1.15;69.12;99438.44;5008287;28;20037;-61
2024/01/18 04:16:37;;;;;;;27.13;16.75;;;;;;;1.12;69.80;99431.53;5008442;28;20034;-61
2024/01/18 04:19:04;;;;;;;19.52;16.48;;;;;;;1.13;69.54;99438.66;5005806;28;20034;-61
2024/01/18 04:21:29;;;;;;;22.70;17.00;;;;;;;1.12;69.23;99442.47;5029858;28;20123;-61
2024/01/18 04:23:56;;;;;;;22.25;16.40;;;;;;;1.10;69.77;99449.19;5014611;28;20058;-60
2024/01/18 04:26:22;;;;;;;21.13;16.45;;;;;;;1.09;68.97;99445.63;5008369;28;20820;-61
2024/01/18 04:28:47;;;;;;;24.42;16.40;;;;;;;1.10;69.33;99451.94;5009036;28;20030;-61
2024/01/18 04:31:12;;;;;;;20.73;15.95;;;;;;;1.07;69.09;99452.41;5009063;28;20034;-62
2024/01/18 04:33:38;;;;;;;24.52;17.52;;;;;;;1.03;69.13;99454.75;5007957;28;20026;-62
2024/01/18 04:36:03;;;;;;;20.70;16.08;;;;;;;0.98;69.40;99449.09;5012227;28;20025;-62
2024/01/18 04:38:29;;;;;;;20.35;16.15;;;;;;;0.98;68.50;99457.31;5027745;28;20034;-61
2024/01/18 04:40:54;;;;;;;19.83;15.63;;;;;;;0.95;68.57;99463.25;5007852;28;20037;-61
2024/01/18 04:43:20;;;;;;;20.60;16.20;;;;;;;0.92;69.19;99466.41;5008074;28;20038;-61
2024/01/18 04:45:45;;;;;;;20.15;16.05;;;;;;;0.92;68.67;99469.16;5008425;28;20518;-61
2024/01/18 04:48:11;;;;;;;22.45;16.33;;;;;;;0.89;69.03;99484.06;5007786;28;20097;-62
2024/01/18 04:50:36;;;;;;;22.98;16.90;;;;;;;0.89;69.09;99488.72;5008358;28;20431;-62
2024/01/18 04:53:02;;;;;;;20.95;15.85;;;;;;;0.90;68.81;99490.38;5007985;28;20030;-62
2024/01/18 04:55:28;;;;;;;21.98;16.10;;;;;;;0.89;68.49;99492.28;5054484;28;20376;-61
2024/01/18 04:57:53;;;;;;;19.25;15.68;;;;;;;0.87;68.50;99493.56;5028263;28;20078;-61
2024/01/18 05:00:19;;;;;;;20.85;15.55;;;;;;;0.88;68.94;99500.69;5062641;28;20122;-61
2024/01/18 05:02:45;;;;;;;20.90;14.80;;;;;;;0.86;68.47;99506.38;5025749;28;20053;-61
2024/01/18 05:05:10;;;;;;;20.00;15.02;;;;;;;0.83;68.56;99506.00;5016669;28;20045;-61
2024/01/18 05:07:42;;;;;;;23.02;14.77;;;;;;;0.82;68.64;99507.88;5007900;28;20033;-61
2024/01/18 05:10:09;;;;;;;21.10;15.53;;;;;;;0.80;68.19;99515.47;5007464;28;20030;-61
2024/01/18 05:12:35;;;;;;;18.20;15.30;;;;;;;0.80;68.17;99507.28;5022963;28;20025;-61
2024/01/18 05:15:01;;;;;;;22.60;15.23;;;;;;;0.78;67.90;99511.28;5014918;28;20030;-61
2024/01/18 05:17:35;;;;;;;19.50;14.88;;;;;;;0.74;67.88;99509.00;5006988;28;20033;-61
2024/01/18 05:20:05;;;;;;;18.88;14.48;;;;;;;0.71;67.78;99511.34;5013641;28;20058;-61
2024/01/18 05:22:31;;;;;;;18.20;14.70;;;;;;;0.68;68.13;99509.88;5019665;28;20057;-61
2024/01/18 05:24:59;;;;;;;18.17;14.73;;;;;;;0.63;67.40;99506.13;5007236;28;20057;-61
2024/01/18 05:27:27;;;;;;;20.23;16.10;;;;;;;0.64;67.68;99510.56;5018391;28;20060;-61
2024/01/18 05:29:53;;;;;;;21.85;15.60;;;;;;;0.63;67.82;99512.47;5027142;28;20018;-61
2024/01/18 05:32:21;;;;;;;20.40;15.98;;;;;;;0.61;67.59;99522.75;5009051;28;20524;-61
2024/01/18 05:34:48;;;;;;;20.52;16.75;;;;;;;0.59;67.25;99521.28;5007560;28;20119;-61
2024/01/18 05:37:13;;;;;;;25.27;17.30;;;;;;;0.56;67.64;99525.31;5026471;28;20033;-61
2024/01/18 05:39:39;;;;;;;19.80;15.98;;;;;;;0.53;67.35;99533.94;5015118;28;20038;-61
2024/01/18 05:42:04;;;;;;;21.08;16.52;;;;;;;0.49;67.08;99529.97;5006891;28;20094;-62
2024/01/18 05:44:30;;;;;;;22.35;15.98;;;;;;;0.48;67.30;99539.22;5007685;28;20049;-61
2024/01/18 05:46:55;;;;;;;18.58;15.63;;;;;;;0.46;67.51;99547.63;5011510;28;20118;-61
2024/01/18 05:49:21;;;;;;;18.55;15.77;;;;;;;0.46;67.56;99541.34;5011171;28;20057;-61
2024/01/18 05:51:47;;;;;;;23.33;15.93;;;;;;;0.44;66.76;99551.66;5010380;28;20053;-61
2024/01/18 05:54:12;;;;;;;20.80;15.45;;;;;;;0.43;66.80;99548.09;5026745;28;20465;-61
2024/01/18 05:56:38;;;;;;;19.63;15.57;;;;;;;0.41;67.44;99546.63;5019422;28;20117;-61
2024/01/18 05:59:03;;;;;;;18.92;15.52;;;;;;;0.41;67.23;99563.00;5024777;28;20028;-61
2024/01/18 06:01:28;;;;;;;23.40;15.68;;;;;;;0.38;67.27;99569.72;5012732;28;20030;-61
2024/01/18 06:03:53;;;;;;;19.58;14.93;;;;;;;0.38;67.36;99568.88;5014648;28;20410;-61
2024/01/18 06:06:19;;;;;;;21.70;14.32;;;;;;;0.37;67.36;99578.97;5021288;28;20042;-61
2024/01/18 06:08:44;;;;;;;19.15;14.98;;;;;;;0.36;67.41;99573.75;5014615;28;20026;-61
2024/01/18 06:11:09;;;;;;;16.85;14.30;;;;;;;0.35;67.72;99575.59;5021854;28;20117;-61
2024/01/18 06:13:39;;;;;;;18.42;15.35;;;;;;;0.38;67.68;99580.63;5018261;28;20032;-61
2024/01/18 06:16:06;;;;;;;22.92;14.77;;;;;;;0.33;67.50;99588.66;5028039;28;20067;-61
2024/01/18 06:18:32;;;;;;;17.85;14.43;;;;;;;0.35;67.99;99599.34;5023624;28;20030;-61
2024/01/18 06:20:57;;;;;;;20.52;14.63;;;;;;;0.35;67.51;99602.06;5086192;28;20378;-61
2024/01/18 06:23:23;;;;;;;20.85;15.35;;;;;;;0.34;67.48;99597.69;5040017;28;20473;-61
2024/01/18 06:25:48;;;;;;;18.52;14.27;;;;;;;0.35;67.85;99610.25;5045945;28;20043;-61
2024/01/18 06:28:13;;;;;;;19.08;15.07;;;;;;;0.33;67.45;99607.75;5076109;28;20489;-61
2024/01/18 06:30:43;;;;;;;19.60;14.43;;;;;;;0.32;67.36;99613.44;5015457;28;20034;-61
2024/01/18 06:33:09;;;;;;;22.65;14.57;;;;;;;0.30;67.27;99610.06;5016953;28;20028;-61
2024/01/18 06:35:34;;;;;;;17.77;14.48;;;;;;;0.28;67.85;99623.13;5045386;28;20444;-60
2024/01/18 06:37:59;;;;;;;20.63;15.82;;;;;;;0.27;67.50;99626.88;5017141;28;20034;-61
2024/01/18 06:40:25;;;;;;;21.15;15.48;;;;;;;0.26;67.97;99619.75;5018961;28;20041;-61
2024/01/18 06:42:50;;;;;;;19.25;15.32;;;;;;;0.24;67.55;99629.00;5016499;28;20401;-61
2024/01/18 06:45:15;;;;;;;26.27;15.85;;;;;;;0.22;67.41;99631.09;5010302;28;20049;-62
2024/01/18 06:47:40;;;;;;;19.45;13.90;;;;;;;0.23;67.66;99632.75;5024829;28;20033;-61
2024/01/18 06:50:06;;;;;;;22.20;14.73;;;;;;;0.22;67.08;99635.72;5012543;28;20030;-61
2024/01/18 06:52:31;;;;;;;18.50;14.40;;;;;;;0.21;67.48;99639.50;5006219;28;20026;-61
2024/01/18 06:54:56;;;;;;;22.30;15.40;;;;;;;0.18;66.82;99639.94;5008765;28;20029;-61
2024/01/18 06:57:22;;;;;;;23.95;14.63;;;;;;;0.16;67.24;99644.78;5009845;28;20033;-61
2024/01/18 06:59:48;;;;;;;23.25;14.73;;;;;;;0.14;66.72;99655.91;5010219;28;20030;-61
2024/01/18 07:02:13;;;;;;;22.83;15.13;;;;;;;0.13;66.74;99647.94;5009612;28;20355;-61
2024/01/18 07:04:38;;;;;;;19.15;14.82;;;;;;;0.11;67.09;99656.31;5008606;28;20025;-61
2024/01/18 07:07:04;;;;;;;21.13;14.85;;;;;;;0.08;66.74;99655.91;5018057;28;20400;-61
2024/01/18 07:09:31;;;;;;;19.92;14.05;;;;;;;0.05;66.07;99659.91;5009296;28;20034;-61
2024/01/18 07:11:56;;;;;;;23.10;15.23;;;;;;;0.06;66.43;99664.31;5017284;28;20021;-61
2024/01/18 07:14:21;;;;;;;17.92;14.90;;;;;;;0.04;66.12;99669.16;5022790;28;20033;-60
2024/01/18 07:16:47;;;;;;;17.48;14.93;;;;;;;0.02;65.78;99671.25;5009209;28;20462;-61
2024/01/18 07:19:12;;;;;;;20.65;15.43;;;;;;;0.02;66.01;99671.25;5009388;28;20030;-61
2024/01/18 07:21:37;;;;;;;19.55;15.02;;;;;;;0.01;66.20;99676.94;5045282;28;20425;-61
2024/01/18 07:24:03;;;;;;;20.77;14.82;;;;;;;-0.02;66.08;99678.19;5017071;28;20127;-61
2024/01/18 07:26:28;;;;;;;23.27;14.98;;;;;;;-0.05;66.18;99681.34;4998523;28;20029;-61
2024/01/18 07:28:53;;;;;;;19.83;14.38;;;;;;;-0.06;65.77;99685.94;5008609;28;20030;-61
2024/01/18 07:31:19;;;;;;;20.80;14.40;;;;;;;-0.06;66.47;99690.56;5008909;28;20037;-61
2024/01/18 07:33:44;;;;;;;17.65;13.80;;;;;;;-0.05;66.49;99690.34;5009088;28;20129;-61
2024/01/18 07:36:10;;;;;;;22.00;14.60;;;;;;;-0.06;66.59;99701.50;5007631;28;20026;-62
2024/01/18 07:38:36;;;;;;;22.52;15.73;;;;;;;-0.04;66.42;99707.56;5005415;28;20035;-62
2024/01/18 07:41:02;;;;;;;20.13;14.98;;;;;;;-0.05;66.23;99706.72;5010107;28;20026;-61
2024/01/18 07:43:27;;;;;;;22.73;14.68;;;;;;;-0.08;66.35;99711.75;5008081;28;20038;-62
2024/01/18 07:45:52;;;;;;;19.25;14.57;;;;;;;-0.10;66.68;99703.78;5008394;28;20018;-61
2024/01/18 07:48:18;;;;;;;19.75;13.98;;;;;;;-0.09;66.26;99712.81;5009380;28;20082;-61
2024/01/18 07:50:43;;;;;;;21.13;13.93;;;;;;;-0.09;66.10;99715.53;5008831;28;20032;-61
2024/01/18 07:53:10;;;;;;;21.05;14.55;;;;;;;-0.10;66.52;99725.63;5017557;28;20087;-60
2024/01/18 07:55:36;;;;;;;18.25;13.18;;;;;;;-0.09;66.63;99726.44;5008814;28;20037;-61
2024/01/18 07:58:01;;;;;;;20.27;13.55;;;;;;;-0.07;66.96;99735.28;5000926;28;20038;-61
2024/01/18 08:00:26;;;;;;;22.48;14.38;;;;;;;-0.09;67.02;99742.81;4991850;28;20065;-61
2024/01/18 08:02:52;;;;;;;19.63;13.45;;;;;;;-0.07;66.73;99746.19;4993533;28;20034;-61
2024/01/18 08:05:17;;;;;;;20.35;13.73;;;;;;;-0.07;66.83;99757.09;4992487;28;20065;-61
2024/01/18 08:07:42;;;;;;;14.00;12.02;;;;;;;-0.05;67.30;99755.81;5016015;28;20040;-61
2024/01/18 08:10:10;;;;;;;18.27;13.30;;;;;;;-0.06;66.83;99758.75;5028984;28;20082;-61
2024/01/18 08:12:36;;;;;;;16.10;12.38;;;;;;;-0.07;67.15;99759.81;5026023;28;20025;-60
2024/01/18 08:15:03;;;;;;;17.38;12.20;;;;;;;-0.06;66.72;99766.94;5008721;28;20058;-60
2024/01/18 08:17:28;;;;;;;19.73;12.30;;;;;;;-0.08;66.98;99760.84;5008027;28;20061;-61
2024/01/18 08:19:54;;;;;;;19.75;13.18;;;;;;;-0.07;67.23;99759.81;5001376;28;20050;-61
2024/01/18 08:22:20;;;;;;;22.17;13.45;;;;;;;-0.08;67.03;99769.91;5003972;28;20042;-61
2024/01/18 08:24:46;;;;;;;17.88;13.18;;;;;;;-0.09;67.24;99776.38;4999705;28;20546;-61
2024/01/18 08:27:11;;;;;;;19.48;13.30;;;;;;;-0.06;67.36;99777.84;5017236;28;20522;-60
2024/01/18 08:29:38;;;;;;;23.98;12.50;;;;;;;-0.08;67.76;99782.69;5011357;28;20120;-60
2024/01/18 08:32:04;;;;;;;20.42;13.15;;;;;;;-0.07;67.55;99792.56;4999531;28;20122;-60
2024/01/18 08:34:29;;;;;;;18.95;11.88;;;;;;;-0.06;67.51;99781.44;5005065;28;20030;-60
2024/01/18 08:36:55;;;;;;;18.50;12.77;;;;;;;-0.05;67.57;99790.44;5002890;28;20045;-60
2024/01/18 08:39:20;;;;;;;22.38;12.80;;;;;;;-0.02;67.59;99804.50;5021404;28;20032;-60
2024/01/18 08:41:45;;;;;;;15.63;12.27;;;;;;;-0.01;68.13;99799.88;5021925;28;20069;-58
2024/01/18 08:44:11;;;;;;;17.52;12.05;;;;;;;-0.03;67.98;99810.19;5014202;28;20056;-59
2024/01/18 08:46:38;;;;;;;16.08;12.07;;;;;;;0.01;68.05;99811.44;5025753;28;20149;-61
2024/01/18 08:49:04;;;;;;;19.98;13.13;;;;;;;0.03;68.12;99812.06;5008282;28;20026;-61
2024/01/18 08:51:29;;;;;;;19.05;12.20;;;;;;;0.05;68.31;99815.44;5006863;28;20045;-60
2024/01/18 08:53:55;;;;;;;17.35;11.95;;;;;;;0.07;67.83;99816.03;5007361;28;20025;-61
2024/01/18 08:56:20;;;;;;;17.42;12.15;;;;;;;0.08;68.02;99819.59;5014272;28;20033;-61
2024/01/18 08:58:45;;;;;;;13.10;11.57;;;;;;;0.11;68.87;99822.75;5036400;28;20022;-61
2024/01/18 09:01:11;;;;;;;17.25;11.80;;;;;;;0.23;69.05;99834.72;5020093;28;20515;-63
2024/01/18 09:03:36;;;;;;;16.83;12.20;;;;;;;0.28;68.95;99841.44;5034820;28;20068;-62
2024/01/18 09:06:02;;;;;;;14.82;12.05;;;;;;;0.26;68.59;99849.00;5024801;28;20070;-62
2024/01/18 09:08:28;;;;;;;17.83;11.70;;;;;;;0.27;69.18;99856.13;5016061;28;20040;-61
2024/01/18 09:10:53;;;;;;;15.07;12.05;;;;;;;0.26;69.11;99854.47;5071867;28;20027;-61
2024/01/18 09:13:19;;;;;;;16.88;12.13;;;;;;;0.27;68.86;99850.66;5025786;28;20034;-61
2024/01/18 09:15:45;;;;;;;13.52;11.32;;;;;;;0.28;68.88;99863.28;5015713;28;20061;-59
2024/01/18 09:18:10;;;;;;;14.32;11.15;;;;;;;0.30;69.25;99856.53;4998234;28;20159;-59
2024/01/18 09:20:37;;;;;;;14.30;11.43;;;;;;;0.31;68.92;99860.94;5009963;28;20041;-61
2024/01/18 09:23:02;;;;;;;14.18;10.45;;;;;;;0.36;69.00;99871.25;5010604;28;20030;-62
2024/01/18 09:25:28;;;;;;;13.27;10.27;;;;;;;0.34;69.44;99874.19;5010516;28;20541;-62
2024/01/18 09:27:54;;;;;;;15.13;10.60;;;;;;;0.38;69.65;99877.34;5011130;28;20033;-62
2024/01/18 09:30:19;;;;;;;15.68;11.13;;;;;;;0.38;69.15;99885.53;5009964;28;20170;-62
2024/01/18 09:32:45;;;;;;;12.73;10.77;;;;;;;0.43;69.92;99893.91;5010816;28;20108;-62
2024/01/18 09:35:10;;;;;;;12.77;9.88;;;;;;;0.48;69.38;99894.16;5010521;28;20053;-62
2024/01/18 09:37:36;;;;;;;12.25;10.05;;;;;;;0.53;69.45;99899.81;5014733;28;20049;-62
2024/01/18 09:40:01;;;;;;;12.98;10.35;;;;;;;0.58;69.75;99910.09;5006273;28;20508;-62
2024/01/18 09:42:34;;;;;;;15.43;10.60;;;;;;;0.63;69.32;99913.88;5005267;28;20036;-62
2024/01/18 09:45:07;;;;;;;;;;;;;;;0.78;69.05;99918.25;5007611;28;20029;-62
2024/01/18 09:47:32;;;;;;;16.02;10.02;;;;;;;0.75;70.43;99927.72;5010488;28;19952;-62
2024/01/18 09:49:58;;;;;;;17.95;10.38;;;;;;;0.86;69.93;99932.53;5010117;28;20178;-62
2024/01/18 09:52:24;;;;;;;16.80;10.85;;;;;;;0.96;70.50;99937.56;5010147;28;20037;-62
2024/01/18 09:54:49;;;;;;;14.02;10.73;;;;;;;1.07;69.90;99938.81;5009949;28;20030;-62
2024/01/18 09:57:30;;;;;;;13.20;10.30;;;;;;;1.19;69.20;99942.56;5042330;28;20503;-62
2024/01/18 09:59:58;;;;;;;13.98;9.23;;;;;;;1.33;69.54;99940.63;5016731;28;20057;-63
2024/01/18 10:02:25;;;;;;;11.52;9.23;;;;;;;1.45;68.64;99958.03;5006939;28;20042;-63
2024/01/18 10:04:54;;;;;;;13.93;8.80;;;;;;;1.58;69.09;99966.22;5009657;28;20030;-62
2024/01/18 10:07:22;;;;;;;13.23;8.98;;;;;;;1.71;68.33;99970.78;5006595;28;20363;-62
2024/01/18 10:09:47;;;;;;;12.13;8.68;;;;;;;1.87;68.22;99977.66;5015406;28;20029;-62
2024/01/18 10:12:13;;;;;;;10.07;8.25;;;;;;;2.00;68.41;99977.56;5098914;28;20517;-63
2024/01/18 10:14:43;;;;;;;11.43;7.57;;;;;;;2.12;67.73;99986.81;5109311;28;20080;-64
2024/01/18 10:17:29;;;;;;;11.15;7.35;;;;;;;2.29;67.27;99989.00;5010134;28;20034;-62
2024/01/18 10:19:56;;;;;;;10.40;6.80;;;;;;;2.41;66.84;99999.03;5009021;28;20057;-62
2024/01/18 10:22:22;;;;;;;10.38;6.82;;;;;;;2.53;67.40;100001.91;5010099;28;20453;-62
2024/01/18 10:24:47;;;;;;;13.40;7.93;;;;;;;2.64;67.17;100005.84;5048018;28;20453;-62
2024/01/18 10:27:13;;;;;;;10.10;6.25;;;;;;;2.74;66.20;100000.69;5016130;28;20057;-62
2024/01/18 10:29:40;;;;;;;12.35;7.72;;;;;;;2.85;66.31;100010.94;4990548;28;20470;-61
2024/01/18 10:32:06;;;;;;;16.83;7.72;;;;;;;2.93;66.14;100009.81;4989170;28;20122;-61
2024/01/18 10:34:36;;;;;;;14.90;7.57;;;;;;;3.02;65.73;100011.22;4990537;28;20053;-61
2024/01/18 10:37:01;;;;;;;10.60;6.22;;;;;;;3.12;65.90;100006.06;4990378;28;20441;-61
2024/01/18 10:39:26;;;;;;;7.85;5.88;;;;;;;3.22;65.89;100012.94;5008022;28;20054;-62
2024/01/18 10:41:52;;;;;;;9.15;5.90;;;;;;;3.31;65.52;100015.16;5003658;28;20125;-61
2024/01/18 10:44:18;;;;;;;7.05;5.78;;;;;;;3.38;65.30;100012.34;5018606;28;20053;-61
2024/01/18 10:46:46;;;;;;;12.65;5.97;;;;;;;3.47;64.82;100016.50;5019983;28;20029;-61
2024/01/18 10:49:16;;;;;;;9.32;5.43;;;;;;;3.55;64.36;100013.44;5007271;28;20034;-61
2024/01/18 10:51:41;;;;;;;7.60;5.20;;;;;;;3.62;65.05;100016.97;5080805;28;20122;-61
2024/01/18 10:54:10;;;;;;;11.82;6.10;;;;;;;3.67;64.73;100022.59;5101941;28;20136;-61
2024/01/18 10:56:36;;;;;;;11.27;5.40;;;;;;;3.75;64.30;100026.94;5011138;28;20042;-62
2024/01/18 10:59:04;;;;;;;10.45;5.55;;;;;;;3.80;64.32;100024.34;5001099;28;20026;-61
2024/01/18 11:01:31;;;;;;;8.18;5.25;;;;;;;3.86;64.10;100028.09;5008138;28;20143;-61
2024/01/18 11:03:58;;;;;;;7.13;5.18;;;;;;;3.88;64.21;100031.44;5006202;28;20496;-61
2024/01/18 11:06:25;;;;;;;7.13;5.00;;;;;;;3.93;63.34;100037.09;5003790;28;20061;-60
2024/01/18 11:08:50;;;;;;;10.95;5.68;;;;;;;3.96;63.74;100036.59;4999861;28;20030;-61
2024/01/18 11:11:16;;;;;;;8.60;5.25;;;;;;;4.00;63.98;100043.31;5004994;28;20038;-62
2024/01/18 11:13:42;;;;;;;11.23;5.88;;;;;;;4.03;63.63;100047.53;5008744;28;20026;-60
2024/01/18 11:16:07;;;;;;;10.73;5.68;;;;;;;4.08;63.33;100042.16;5013223;28;20036;-63
2024/01/18 11:18:35;;;;;;;7.90;5.72;;;;;;;4.12;63.67;100044.22;5019182;28;20086;-62